Time;durP1;ratioP1;P1;durP2;ratioP2;P2;SDS_P1;SDS_P2;PMS_P1;PMS_P2;Temp;Humidity;BMP_temperature;BMP_pressure;BME280_temperature;BME280_humidity;BME280_pressure;Samples;Min_cycle;Max_cycle;Signal;HPM_P1;HPM_P2
2023/07/05 00:00:17;;;;;;;19.02;18.38;;;19.60;99.90;;;;;;5009121;28;20201;-65
2023/07/05 00:02:45;;;;;;;19.33;18.63;;;19.70;99.90;;;;;;5024963;28;20232;-67
2023/07/05 00:05:12;;;;;;;18.88;18.17;;;19.70;99.90;;;;;;5021346;28;20212;-66
2023/07/05 00:07:39;;;;;;;18.55;17.92;;;19.70;99.90;;;;;;5023508;28;20203;-69
2023/07/05 00:10:08;;;;;;;18.58;17.95;;;19.70;99.90;;;;;;5022554;28;20211;-65
2023/07/05 00:12:35;;;;;;;18.42;17.83;;;19.70;99.90;;;;;;5021595;28;20233;-69
2023/07/05 00:15:03;;;;;;;18.42;17.75;;;19.70;99.90;;;;;;5023653;28;20305;-67
2023/07/05 00:17:32;;;;;;;18.73;18.10;;;19.70;99.90;;;;;;5028958;28;20193;-66
2023/07/05 00:19:59;;;;;;;18.25;17.58;;;19.70;99.90;;;;;;5026081;28;20197;-70
2023/07/05 00:22:27;;;;;;;18.83;18.20;;;19.60;99.90;;;;;;5025454;28;20221;-72
2023/07/05 00:24:54;;;;;;;19.45;18.75;;;19.70;99.90;;;;;;5025804;28;20297;-68
2023/07/05 00:27:22;;;;;;;19.48;18.80;;;19.70;99.90;;;;;;5027721;28;20732;-67
2023/07/05 00:29:50;;;;;;;20.53;19.80;;;19.80;99.90;;;;;;5016889;28;20256;-70
2023/07/05 00:32:17;;;;;;;21.98;21.20;;;19.90;99.90;;;;;;5013671;28;20227;-69
2023/07/05 00:34:44;;;;;;;24.77;23.92;;;19.90;99.90;;;;;;5012399;28;20209;-68
2023/07/05 00:37:11;;;;;;;28.23;27.25;;;19.90;99.90;;;;;;5012772;28;20209;-69
2023/07/05 00:39:37;;;;;;;29.95;28.90;;;19.90;99.90;;;;;;5011833;28;20387;-67
2023/07/05 00:42:05;;;;;;;28.92;27.92;;;19.90;99.90;;;;;;5013892;28;20225;-68
2023/07/05 00:44:33;;;;;;;28.52;27.52;;;19.90;99.90;;;;;;5016767;28;20215;-67
2023/07/05 00:47:06;;;;;;;28.00;27.00;;;19.90;99.90;;;;;;5012355;28;20209;-68
2023/07/05 00:49:36;;;;;;;27.30;26.30;;;19.90;99.90;;;;;;5010801;28;20209;-68
2023/07/05 00:52:06;;;;;;;30.33;29.23;;;19.80;99.90;;;;;;5011907;28;20221;-69
2023/07/05 00:54:38;;;;;;;26.40;25.50;;;19.70;99.90;;;;;;5013757;28;20197;-68
2023/07/05 00:57:10;;;;;;;25.42;24.50;;;19.60;99.90;;;;;;5014758;28;20310;-67
2023/07/05 00:59:44;;;;;;;24.80;23.95;;;19.50;99.90;;;;;;5010837;28;20182;-69
2023/07/05 01:02:13;;;;;;;24.25;23.42;;;19.50;99.90;;;;;;5011520;28;20229;-67
2023/07/05 01:04:41;;;;;;;24.38;23.55;;;19.50;99.90;;;;;;5014359;28;20216;-66
2023/07/05 01:07:08;;;;;;;23.98;23.15;;;19.50;99.90;;;;;;5014222;28;20205;-69
2023/07/05 01:09:36;;;;;;;23.83;23.02;;;19.60;99.90;;;;;;5013035;28;20236;-69
2023/07/05 01:12:15;;;;;;;25.92;25.00;;;19.70;99.90;;;;;;5013807;28;20979;-66
2023/07/05 01:14:51;;;;;;;24.95;24.05;;;19.70;99.90;;;;;;5050443;22;20224;-64
2023/07/05 01:17:27;;;;;;;25.13;24.27;;;19.80;99.90;;;;;;5028693;28;20204;-65
2023/07/05 01:20:36;;;;;;;24.92;24.02;;;19.80;99.90;;;;;;5032388;28;20201;-63
2023/07/05 01:23:41;;;;;;;23.73;22.93;;;19.80;99.90;;;;;;4979784;28;20268;-63
2023/07/05 01:26:42;;;;;;;22.88;22.08;;;19.80;99.90;;;;;;4973689;28;20211;-63
2023/07/05 01:29:45;;;;;;;21.85;21.08;;;19.60;99.90;;;;;;4967881;28;20304;-63
2023/07/05 01:32:17;;;;;;;21.65;20.90;;;19.70;99.90;;;;;;4953325;29;20594;-64
2023/07/05 01:34:50;;;;;;;22.33;21.58;;;19.60;99.90;;;;;;4952967;28;20319;-65
2023/07/05 01:37:29;;;;;;;24.20;23.38;;;19.70;99.90;;;;;;4952717;28;20709;-65
2023/07/05 01:39:56;;;;;;;24.55;23.70;;;19.80;99.90;;;;;;4964109;28;20297;-63
2023/07/05 01:42:30;;;;;;;23.92;23.13;;;19.80;99.90;;;;;;5031814;28;20204;-63
2023/07/05 01:44:57;;;;;;;23.83;23.00;;;19.80;99.90;;;;;;5033537;28;20737;-65
2023/07/05 01:47:33;;;;;;;23.58;22.67;;;19.80;99.90;;;;;;5038245;28;20205;-63
2023/07/05 01:50:08;;;;;;;23.15;22.35;;;19.70;99.90;;;;;;5033046;28;20234;-65
2023/07/05 01:52:43;;;;;;;23.88;23.08;;;19.80;99.90;;;;;;5037404;28;20242;-65
2023/07/05 01:55:16;;;;;;;23.52;22.73;;;19.80;99.90;;;;;;5039996;28;20230;-63
2023/07/05 01:57:49;;;;;;;24.40;23.58;;;19.80;99.90;;;;;;5041204;28;20697;-64
2023/07/05 02:00:20;;;;;;;23.13;22.33;;;19.70;99.90;;;;;;5039581;28;20311;-63
2023/07/05 02:02:52;;;;;;;22.98;22.20;;;19.60;99.90;;;;;;5038979;28;20212;-65
2023/07/05 02:05:21;;;;;;;24.27;23.45;;;19.60;99.90;;;;;;5033614;28;20239;-63
2023/07/05 02:07:48;;;;;;;22.27;21.48;;;19.60;99.90;;;;;;5032083;28;20204;-63
2023/07/05 02:10:15;;;;;;;22.55;21.75;;;19.60;99.90;;;;;;5031934;28;20220;-63
2023/07/05 02:12:43;;;;;;;20.80;20.10;;;19.60;99.90;;;;;;5032238;28;20240;-64
2023/07/05 02:15:11;;;;;;;21.98;21.17;;;19.60;99.90;;;;;;5031176;28;20237;-63
2023/07/05 02:17:38;;;;;;;20.30;19.60;;;19.60;99.90;;;;;;5032438;28;20208;-64
2023/07/05 02:20:08;;;;;;;21.75;21.02;;;19.60;99.90;;;;;;5031888;28;20223;-63
2023/07/05 02:22:34;;;;;;;21.93;21.20;;;19.60;99.90;;;;;;5032224;28;20291;-63
2023/07/05 02:25:01;;;;;;;21.30;20.60;;;19.60;99.90;;;;;;5032481;28;20221;-64
2023/07/05 02:27:29;;;;;;;21.42;20.73;;;19.60;99.90;;;;;;5032294;28;20270;-64
2023/07/05 02:29:56;;;;;;;21.90;21.10;;;19.60;99.90;;;;;;5031596;28;20278;-63
2023/07/05 02:32:23;;;;;;;22.58;21.80;;;19.70;99.90;;;;;;5032642;28;20666;-63
2023/07/05 02:34:50;;;;;;;22.73;21.95;;;19.70;99.90;;;;;;5030896;28;20225;-64
2023/07/05 02:37:19;;;;;;;21.73;21.00;;;19.70;99.90;;;;;;5033140;28;20299;-64
2023/07/05 02:39:46;;;;;;;22.27;21.50;;;19.60;99.90;;;;;;5031183;28;20296;-65
2023/07/05 02:42:13;;;;;;;22.00;21.25;;;19.70;99.90;;;;;;5032309;28;20201;-63
2023/07/05 02:44:40;;;;;;;22.30;21.52;;;19.70;99.90;;;;;;5031886;28;20225;-63
2023/07/05 02:47:07;;;;;;;22.83;21.83;;;19.70;99.90;;;;;;5031862;28;20758;-65
2023/07/05 02:49:34;;;;;;;22.98;22.20;;;19.70;99.90;;;;;;5031175;28;20228;-65
2023/07/05 02:52:01;;;;;;;22.63;21.85;;;19.70;99.90;;;;;;5031719;28;20200;-65
2023/07/05 02:54:29;;;;;;;22.65;21.88;;;19.70;99.90;;;;;;5031770;28;20290;-64
2023/07/05 02:56:56;;;;;;;21.17;20.38;;;19.70;99.90;;;;;;5032014;28;20204;-64
2023/07/05 02:59:23;;;;;;;21.55;20.80;;;19.70;99.90;;;;;;5031020;28;20283;-64
2023/07/05 03:01:50;;;;;;;17.10;16.40;;;19.80;99.90;;;;;;5031767;28;20209;-65
2023/07/05 03:04:17;;;;;;;25.02;24.00;;;19.80;99.90;;;;;;5030954;28;20228;-65
2023/07/05 03:06:43;;;;;;;23.60;22.80;;;19.70;99.90;;;;;;5027239;28;20206;-64
2023/07/05 03:09:10;;;;;;;25.55;24.65;;;19.70;99.90;;;;;;5031947;28;20777;-63
2023/07/05 03:11:39;;;;;;;25.27;24.33;;;19.70;99.90;;;;;;5032057;28;21028;-65
2023/07/05 03:14:05;;;;;;;22.33;21.13;;;19.70;99.90;;;;;;5032208;28;20255;-64
2023/07/05 03:16:32;;;;;;;19.48;18.83;;;19.70;99.90;;;;;;5032159;28;20207;-63
2023/07/05 03:18:59;;;;;;;23.20;22.20;;;19.70;99.90;;;;;;5032236;28;20319;-64
2023/07/05 03:21:26;;;;;;;24.77;23.85;;;19.70;99.90;;;;;;5031033;28;20714;-63
2023/07/05 03:23:53;;;;;;;20.40;19.70;;;19.80;99.90;;;;;;5031790;28;20224;-63
2023/07/05 03:26:20;;;;;;;24.67;23.75;;;19.80;99.90;;;;;;5031362;28;20870;-64
2023/07/05 03:28:48;;;;;;;25.20;24.33;;;19.80;99.90;;;;;;5031309;28;20204;-63
2023/07/05 03:31:16;;;;;;;25.35;24.45;;;19.80;99.90;;;;;;5030963;28;20294;-63
2023/07/05 03:33:44;;;;;;;25.20;24.33;;;19.80;99.90;;;;;;5031637;28;20235;-64
2023/07/05 03:36:15;;;;;;;18.70;18.08;;;19.80;99.90;;;;;;5031830;28;20311;-63
2023/07/05 03:38:43;;;;;;;18.80;18.15;;;19.90;99.90;;;;;;5032253;28;20205;-63
2023/07/05 03:41:13;;;;;;;25.10;24.23;;;19.90;99.90;;;;;;5030114;28;20208;-63
2023/07/05 03:43:40;;;;;;;25.45;24.58;;;19.90;99.90;;;;;;5030709;28;20228;-63
2023/07/05 03:46:11;;;;;;;24.77;23.92;;;19.90;99.90;;;;;;5031909;28;20215;-63
2023/07/05 03:48:40;;;;;;;22.98;22.17;;;20.00;99.90;;;;;;5032680;28;20224;-65
2023/07/05 03:51:08;;;;;;;21.67;20.80;;;19.90;99.90;;;;;;5033190;28;20232;-64
2023/07/05 03:53:35;;;;;;;19.48;18.77;;;19.90;99.90;;;;;;5034672;28;20228;-65
2023/07/05 03:56:03;;;;;;;19.25;18.60;;;19.90;99.90;;;;;;5032974;28;20215;-64
2023/07/05 03:58:30;;;;;;;148.60;140.27;;;19.90;99.90;;;;;;5031946;28;20215;-64
2023/07/05 04:01:04;;;;;;;19.00;18.35;;;19.90;99.90;;;;;;5031612;28;20196;-63
2023/07/05 04:03:33;;;;;;;21.48;20.73;;;19.90;99.90;;;;;;5031890;28;20323;-65
2023/07/05 04:05:59;;;;;;;20.85;20.15;;;19.90;99.90;;;;;;5031775;28;20671;-65
2023/07/05 04:08:26;;;;;;;21.52;20.77;;;19.90;99.90;;;;;;5031419;28;20204;-65
2023/07/05 04:10:53;;;;;;;29.73;28.50;;;19.90;99.90;;;;;;5030968;28;20232;-65
2023/07/05 04:13:20;;;;;;;1007.33;506.95;;;19.90;99.90;;;;;;5031887;28;20319;-63
2023/07/05 04:15:47;;;;;;;348.35;323.80;;;19.90;99.90;;;;;;5032053;28;20331;-64
2023/07/05 04:18:13;;;;;;;51.58;49.67;;;20.00;99.90;;;;;;5031733;28;20299;-64
2023/07/05 04:20:42;;;;;;;120.30;115.95;;;20.00;99.90;;;;;;5028800;28;20671;-65
2023/07/05 04:23:08;;;;;;;110.53;106.57;;;20.00;99.90;;;;;;5046316;28;20210;-63
2023/07/05 04:25:35;;;;;;;57.90;55.85;;;20.10;99.90;;;;;;5031532;28;20304;-64
2023/07/05 04:28:02;;;;;;;28.27;27.25;;;20.10;99.90;;;;;;5037483;28;20254;-63
2023/07/05 04:30:29;;;;;;;25.67;24.77;;;20.10;99.90;;;;;;5043331;28;20742;-65
2023/07/05 04:32:56;;;;;;;10.18;9.80;;;20.20;99.90;;;;;;5024969;28;20215;-65
2023/07/05 04:35:23;;;;;;;7.57;7.30;;;20.20;99.90;;;;;;5030751;28;20208;-63
2023/07/05 04:37:51;;;;;;;7.30;7.05;;;20.20;99.90;;;;;;5033259;28;20291;-64
2023/07/05 04:40:21;;;;;;;8.05;7.75;;;20.20;99.90;;;;;;5034195;28;20291;-67
2023/07/05 04:42:48;;;;;;;7.90;7.60;;;20.20;99.90;;;;;;5021176;28;20589;-64
2023/07/05 04:45:16;;;;;;;8.38;8.00;;;20.20;99.90;;;;;;5015197;28;20229;-63
2023/07/05 04:47:42;;;;;;;7.18;6.97;;;20.30;99.90;;;;;;5031345;28;20635;-64
2023/07/05 04:50:10;;;;;;;8.15;7.75;;;20.40;99.90;;;;;;5034672;28;20234;-64
2023/07/05 04:52:37;;;;;;;7.93;7.63;;;20.40;99.90;;;;;;5031744;28;20291;-63
2023/07/05 04:55:06;;;;;;;8.70;8.40;;;20.50;99.90;;;;;;5035242;28;20228;-65
2023/07/05 04:57:33;;;;;;;8.70;8.40;;;20.60;99.90;;;;;;5035271;28;20665;-64
2023/07/05 05:00:04;;;;;;;7.45;7.22;;;20.70;99.90;;;;;;5034111;28;20205;-60
2023/07/05 05:02:31;;;;;;;9.88;9.57;;;20.80;99.90;;;;;;5031559;28;20232;-58
2023/07/05 05:04:58;;;;;;;9.35;8.93;;;20.90;99.90;;;;;;5021120;28;20234;-58
2023/07/05 05:07:24;;;;;;;8.40;8.02;;;21.10;99.90;;;;;;5024323;28;20208;-57
2023/07/05 05:09:51;;;;;;;7.85;7.55;;;21.20;99.90;;;;;;5023496;28;20223;-57
2023/07/05 05:12:19;;;;;;;7.70;7.43;;;21.40;99.90;;;;;;5025979;28;20204;-59
2023/07/05 05:14:46;;;;;;;22.30;21.50;;;21.40;99.90;;;;;;5022174;28;20225;-59
2023/07/05 05:17:13;;;;;;;7.38;7.15;;;21.40;99.90;;;;;;5027978;28;20776;-58
2023/07/05 05:19:40;;;;;;;7.60;7.40;;;21.30;99.90;;;;;;5036798;28;20570;-60
2023/07/05 05:22:07;;;;;;;7.85;7.55;;;21.20;99.90;;;;;;5031308;28;20213;-60
2023/07/05 05:24:34;;;;;;;8.20;7.90;;;21.20;99.90;;;;;;5033096;28;20234;-59
2023/07/05 05:27:00;;;;;;;11.48;11.07;;;21.10;99.90;;;;;;5033434;28;20634;-63
2023/07/05 05:29:29;;;;;;;10.23;9.82;;;21.10;99.90;;;;;;5032685;28;20690;-67
2023/07/05 05:31:56;;;;;;;10.75;10.35;;;20.80;99.90;;;;;;5037551;28;20201;-67
2023/07/05 05:34:26;;;;;;;10.20;9.80;;;20.40;99.90;;;;;;5035000;28;20224;-67
2023/07/05 05:36:53;;;;;;;12.55;12.15;;;20.10;99.90;;;;;;5034166;28;20769;-64
2023/07/05 05:39:20;;;;;;;11.70;11.30;;;20.00;99.90;;;;;;5041645;28;20204;-65
2023/07/05 05:41:47;;;;;;;11.10;10.70;;;19.90;99.90;;;;;;5044024;28;20210;-66
2023/07/05 05:44:14;;;;;;;10.30;9.90;;;19.90;99.90;;;;;;5042992;28;20225;-65
2023/07/05 05:46:42;;;;;;;11.32;10.93;;;19.80;99.90;;;;;;5033390;28;20338;-64
2023/07/05 05:49:09;;;;;;;9.43;9.13;;;19.80;99.90;;;;;;5034952;28;20215;-65
2023/07/05 05:51:36;;;;;;;9.45;9.05;;;19.80;99.90;;;;;;5034718;28;20220;-65
2023/07/05 05:54:03;;;;;;;9.65;9.30;;;19.70;99.90;;;;;;5034656;28;20221;-65
2023/07/05 05:56:29;;;;;;;8.43;8.13;;;19.70;99.90;;;;;;5041332;28;20208;-66
2023/07/05 05:58:56;;;;;;;8.98;8.68;;;19.60;99.90;;;;;;5046764;28;20291;-65
2023/07/05 06:01:23;;;;;;;8.75;8.45;;;19.50;99.90;;;;;;5034907;28;20209;-66
2023/07/05 06:03:51;;;;;;;9.50;9.20;;;19.50;99.90;;;;;;5036812;28;20219;-65
2023/07/05 06:06:18;;;;;;;7.93;7.63;;;19.50;99.90;;;;;;5042661;28;20651;-66
2023/07/05 06:08:45;;;;;;;7.82;7.53;;;19.50;99.90;;;;;;5051273;28;20672;-62
2023/07/05 06:11:12;;;;;;;8.43;8.13;;;19.50;99.90;;;;;;5035880;28;20271;-62
2023/07/05 06:13:39;;;;;;;8.32;8.02;;;19.50;99.90;;;;;;5033031;28;20236;-63
2023/07/05 06:16:06;;;;;;;8.98;8.68;;;19.40;99.90;;;;;;5032386;28;20228;-63
2023/07/05 06:18:33;;;;;;;8.43;8.13;;;19.40;99.90;;;;;;5033667;28;20687;-62
2023/07/05 06:21:01;;;;;;;9.13;8.82;;;19.40;99.90;;;;;;5033251;28;20239;-62
2023/07/05 06:23:27;;;;;;;8.45;8.15;;;19.50;99.90;;;;;;5033877;28;20595;-62
2023/07/05 06:25:54;;;;;;;7.00;6.80;;;19.40;99.90;;;;;;5034849;28;20204;-62
2023/07/05 06:28:21;;;;;;;7.47;7.27;;;19.40;99.90;;;;;;5033686;28;20700;-61
2023/07/05 06:30:48;;;;;;;7.40;7.20;;;19.40;99.90;;;;;;5033087;28;20266;-62
2023/07/05 06:33:15;;;;;;;7.70;7.40;;;19.50;99.90;;;;;;5031930;28;20232;-61
2023/07/05 06:35:48;;;;;;;8.13;7.83;;;19.40;99.90;;;;;;5033731;28;20929;-61
2023/07/05 06:38:16;;;;;;;7.70;7.40;;;19.40;99.90;;;;;;5033108;28;20679;-63
2023/07/05 06:40:43;;;;;;;8.00;7.70;;;19.30;99.90;;;;;;5033175;28;20214;-62
2023/07/05 06:43:10;;;;;;;6.22;6.03;;;19.40;99.90;;;;;;5032778;28;20584;-63
2023/07/05 06:45:37;;;;;;;6.00;5.80;;;19.40;99.90;;;;;;5033216;28;20201;-62
2023/07/05 06:48:04;;;;;;;6.32;6.13;;;19.50;99.90;;;;;;5033309;28;20205;-62
2023/07/05 06:50:31;;;;;;;6.40;6.20;;;19.60;99.90;;;;;;5031946;28;20232;-62
2023/07/05 06:52:58;;;;;;;6.50;6.30;;;19.60;99.90;;;;;;5032713;28;20686;-62
2023/07/05 06:55:26;;;;;;;6.37;6.17;;;19.60;99.90;;;;;;5034887;28;20287;-62
2023/07/05 06:57:53;;;;;;;7.03;6.83;;;19.70;99.90;;;;;;5038452;28;20268;-63
2023/07/05 07:00:21;;;;;;;6.63;6.43;;;19.70;99.90;;;;;;5032843;28;20247;-63
2023/07/05 07:02:47;;;;;;;7.18;6.97;;;19.80;99.90;;;;;;5030455;28;20678;-63
2023/07/05 07:05:15;;;;;;;6.78;6.57;;;19.80;99.90;;;;;;5035241;28;20260;-62
2023/07/05 07:07:43;;;;;;;6.93;6.72;;;19.90;99.90;;;;;;5035564;28;20237;-63
2023/07/05 07:10:10;;;;;;;7.15;6.90;;;19.90;99.90;;;;;;5035560;28;20220;-63
2023/07/05 07:12:38;;;;;;;6.70;6.50;;;19.90;99.90;;;;;;5034567;28;20209;-62
2023/07/05 07:15:06;;;;;;;6.88;6.68;;;19.90;99.90;;;;;;5013000;22;20225;-65
2023/07/05 07:17:32;;;;;;;7.03;6.72;;;19.90;99.90;;;;;;4994004;28;20210;-66
2023/07/05 07:19:59;;;;;;;6.97;6.78;;;19.90;99.90;;;;;;4992754;28;20244;-68
2023/07/05 07:22:26;;;;;;;7.15;6.95;;;19.90;99.90;;;;;;4993009;28;20293;-62
2023/07/05 07:24:53;;;;;;;7.65;7.35;;;19.80;99.90;;;;;;4992611;28;20321;-66
2023/07/05 07:27:20;;;;;;;7.32;7.13;;;19.90;99.90;;;;;;4992175;28;20238;-67
2023/07/05 07:29:48;;;;;;;7.13;6.93;;;20.00;99.90;;;;;;4991982;28;20210;-64
2023/07/05 07:32:15;;;;;;;8.60;8.30;;;20.20;99.90;;;;;;4992148;28;20226;-67
2023/07/05 07:34:42;;;;;;;7.53;7.32;;;20.50;99.90;;;;;;4992010;28;20233;-66
2023/07/05 07:37:09;;;;;;;7.38;7.07;;;20.70;99.90;;;;;;4991699;28;20285;-66
2023/07/05 07:39:36;;;;;;;7.40;7.20;;;20.70;99.90;;;;;;4990888;28;20751;-65
2023/07/05 07:42:03;;;;;;;9.38;9.07;;;21.00;99.90;;;;;;4991709;28;20313;-67
2023/07/05 07:44:30;;;;;;;8.50;8.20;;;21.10;99.90;;;;;;4991375;28;20236;-66
2023/07/05 07:46:58;;;;;;;7.60;7.30;;;21.20;99.90;;;;;;4990065;28;20214;-66
2023/07/05 07:49:25;;;;;;;8.25;7.95;;;21.20;99.90;;;;;;4989541;28;20210;-66
2023/07/05 07:51:52;;;;;;;8.23;7.93;;;21.20;99.90;;;;;;4991474;28;20587;-67
2023/07/05 07:54:25;;;;;;;7.40;7.13;;;21.60;99.90;;;;;;4991291;28;20233;-67
2023/07/05 07:56:54;;;;;;;7.20;7.00;;;21.60;99.90;;;;;;4991812;28;20252;-65
2023/07/05 07:59:21;;;;;;;7.68;7.45;;;21.60;99.90;;;;;;4991245;28;20216;-67
2023/07/05 08:01:48;;;;;;;8.02;7.72;;;21.80;99.90;;;;;;4992020;28;20201;-65
2023/07/05 08:04:17;;;;;;;7.60;7.40;;;21.90;99.90;;;;;;4992760;28;20229;-66
2023/07/05 08:06:46;;;;;;;7.18;6.88;;;21.70;99.90;;;;;;4996176;28;20252;-64
2023/07/05 08:09:16;;;;;;;6.30;6.10;;;21.40;99.90;;;;;;4994795;28;20294;-66
2023/07/05 08:11:43;;;;;;;6.60;6.40;;;21.10;99.90;;;;;;4991176;28;20731;-66
2023/07/05 08:14:13;;;;;;;6.80;6.60;;;20.90;99.90;;;;;;4991508;28;20234;-65
2023/07/05 08:16:40;;;;;;;6.65;6.45;;;20.80;99.90;;;;;;4991352;28;20209;-67
2023/07/05 08:19:07;;;;;;;7.32;7.03;;;20.70;99.90;;;;;;4990940;28;20301;-66
2023/07/05 08:21:36;;;;;;;7.65;7.35;;;20.80;99.90;;;;;;4991972;28;20209;-69
2023/07/05 08:24:03;;;;;;;7.22;7.03;;;20.80;99.90;;;;;;4991756;28;20227;-66
2023/07/05 08:26:30;;;;;;;7.47;7.23;;;20.80;99.90;;;;;;4992012;28;20651;-67
2023/07/05 08:28:58;;;;;;;7.30;7.07;;;20.90;99.90;;;;;;4992103;28;20202;-64
2023/07/05 08:31:25;;;;;;;7.03;6.82;;;21.00;99.90;;;;;;4991457;28;20236;-66
2023/07/05 08:33:52;;;;;;;6.53;6.32;;;21.20;99.90;;;;;;4991571;28;20728;-67
2023/07/05 08:36:28;;;;;;;6.80;6.60;;;21.30;99.90;;;;;;4992224;28;20209;-66
2023/07/05 08:38:56;;;;;;;6.38;6.18;;;21.50;99.90;;;;;;4992593;28;20217;-66
2023/07/05 08:41:31;;;;;;;6.15;5.95;;;21.60;99.90;;;;;;4991364;28;20662;-66
2023/07/05 08:44:03;;;;;;;6.30;6.10;;;21.50;99.90;;;;;;4991789;28;20319;-67
2023/07/05 08:46:31;;;;;;;6.22;6.03;;;21.60;99.90;;;;;;4992152;28;20196;-66
2023/07/05 08:49:05;;;;;;;5.80;5.60;;;21.70;99.90;;;;;;5003187;28;20201;-62
2023/07/05 08:51:32;;;;;;;6.13;5.93;;;21.80;99.90;;;;;;4994914;28;20233;-67
2023/07/05 08:54:04;;;;;;;5.97;5.78;;;21.90;99.90;;;;;;4991725;28;20280;-66
2023/07/05 08:56:35;;;;;;;6.50;6.30;;;22.10;99.90;;;;;;4992032;28;20680;-65
2023/07/05 08:59:09;;;;;;;6.72;6.53;;;22.30;99.90;;;;;;4990969;28;20194;-68
2023/07/05 09:01:42;;;;;;;6.80;6.60;;;22.40;99.90;;;;;;4992281;28;20210;-67
2023/07/05 09:04:12;;;;;;;6.60;6.40;;;22.50;99.90;;;;;;4991118;28;20593;-67
2023/07/05 09:06:49;;;;;;;6.93;6.72;;;22.60;99.90;;;;;;4991826;28;20221;-66
2023/07/05 09:09:28;;;;;;;6.68;6.47;;;22.70;99.90;;;;;;4990887;28;20190;-66
2023/07/05 09:12:06;;;;;;;7.15;6.95;;;22.90;99.90;;;;;;4991819;28;20210;-66
2023/07/05 09:14:41;;;;;;;6.75;6.55;;;23.10;99.90;;;;;;4991703;28;20237;-67
2023/07/05 09:17:17;;;;;;;6.28;6.07;;;23.40;99.90;;;;;;4991991;28;20296;-65
2023/07/05 09:19:52;;;;;;;6.30;6.10;;;23.50;99.90;;;;;;4990758;28;20320;-68
2023/07/05 09:22:24;;;;;;;6.47;6.28;;;23.50;99.90;;;;;;4991829;28;20212;-66
2023/07/05 09:24:53;;;;;;;5.95;5.75;;;23.50;99.90;;;;;;4995174;28;20233;-65
2023/07/05 09:27:24;;;;;;;6.45;6.25;;;23.10;99.90;;;;;;4995631;28;20296;-68
2023/07/05 09:29:55;;;;;;;6.05;5.85;;;22.70;99.90;;;;;;4996993;28;20296;-67
2023/07/05 09:32:29;;;;;;;9.02;8.57;;;22.60;99.90;;;;;;4995834;28;20220;-66
2023/07/05 09:34:58;;;;;;;6.07;5.88;;;22.40;99.90;;;;;;4996873;28;20222;-68
2023/07/05 09:37:29;;;;;;;5.85;5.65;;;22.30;99.90;;;;;;4995342;28;20276;-67
2023/07/05 09:40:08;;;;;;;5.90;5.70;;;22.40;99.90;;;;;;4994134;28;20213;-65
2023/07/05 09:42:39;;;;;;;6.07;5.88;;;22.60;99.90;;;;;;4994666;28;20345;-66
2023/07/05 09:45:11;;;;;;;6.38;6.18;;;22.80;99.90;;;;;;4995094;28;20229;-68
2023/07/05 09:47:37;;;;;;;6.40;6.20;;;23.00;99.90;;;;;;4994373;28;20218;-66
2023/07/05 09:50:13;;;;;;;5.82;5.63;;;23.00;99.90;;;;;;4993620;28;20205;-65
2023/07/05 09:52:41;;;;;;;5.65;5.35;;;23.00;99.90;;;;;;4996545;28;20893;-67
2023/07/05 09:55:14;;;;;;;6.18;5.97;;;23.10;99.90;;;;;;4999483;28;20336;-67
2023/07/05 09:57:42;;;;;;;6.43;6.22;;;23.30;99.90;;;;;;5001375;28;20193;-64
2023/07/05 10:00:22;;;;;;;5.90;5.60;;;23.30;99.90;;;;;;4994203;28;20214;-64
2023/07/05 10:02:49;;;;;;;5.65;5.45;;;23.50;99.90;;;;;;4994556;28;20202;-66
2023/07/05 10:05:26;;;;;;;5.75;5.55;;;23.70;99.90;;;;;;4995085;28;20222;-66
2023/07/05 10:07:56;;;;;;;5.65;5.45;;;23.70;99.90;;;;;;4994957;28;20186;-68
2023/07/05 10:10:28;;;;;;;5.70;5.50;;;23.70;99.90;;;;;;4995227;28;20225;-68
2023/07/05 10:13:02;;;;;;;5.63;5.35;;;23.90;99.90;;;;;;4994931;28;20229;-67
2023/07/05 10:15:30;;;;;;;5.82;5.63;;;23.80;99.90;;;;;;4994884;28;20303;-67
2023/07/05 10:17:58;;;;;;;5.88;5.47;;;23.90;99.90;;;;;;4995267;28;20209;-64
2023/07/05 10:20:27;;;;;;;5.60;5.40;;;24.00;99.90;;;;;;4994527;28;20676;-66
2023/07/05 10:23:02;;;;;;;5.03;4.82;;;24.10;99.90;;;;;;4994679;28;20309;-68
2023/07/05 10:25:38;;;;;;;5.15;4.95;;;24.30;99.90;;;;;;4994798;28;20310;-65
2023/07/05 10:28:07;;;;;;;5.10;4.90;;;24.50;99.90;;;;;;4993844;28;20186;-66
2023/07/05 10:30:49;;;;;;;5.30;5.10;;;24.70;99.90;;;;;;4992863;28;20240;-66
2023/07/05 10:33:20;;;;;;;5.18;4.97;;;24.90;99.90;;;;;;4993856;28;20201;-68
2023/07/05 10:35:53;;;;;;;5.50;5.30;;;25.00;99.90;;;;;;4993033;28;20604;-67
2023/07/05 10:38:26;;;;;;;5.10;4.90;;;24.90;99.90;;;;;;4993601;28;20216;-65
2023/07/05 10:40:56;;;;;;;5.38;5.18;;;25.00;99.90;;;;;;4992929;28;20213;-65
2023/07/05 10:43:24;;;;;;;5.28;5.07;;;25.10;99.90;;;;;;4993074;28;20708;-66
2023/07/05 10:45:51;;;;;;;5.45;5.25;;;25.30;99.90;;;;;;4993434;28;20748;-67
2023/07/05 10:48:26;;;;;;;5.30;5.10;;;25.30;99.90;;;;;;4993259;28;20206;-67
2023/07/05 10:50:54;;;;;;;5.35;5.15;;;25.30;99.90;;;;;;4994313;28;20190;-67
2023/07/05 10:53:24;;;;;;;5.35;5.15;;;25.30;99.90;;;;;;4997127;28;20587;-65
2023/07/05 10:56:00;;;;;;;5.90;5.70;;;25.50;99.90;;;;;;4993645;28;20210;-66
2023/07/05 10:58:38;;;;;;;5.50;5.30;;;25.50;99.90;;;;;;4992840;28;20237;-65
2023/07/05 11:01:13;;;;;;;5.63;5.43;;;25.50;99.90;;;;;;4992252;28;20640;-65
2023/07/05 11:03:45;;;;;;;5.60;5.40;;;25.40;99.90;;;;;;4993253;28;20225;-67
2023/07/05 11:06:14;;;;;;;5.75;5.55;;;25.50;99.90;;;;;;4993420;28;20221;-66
2023/07/05 11:08:45;;;;;;;5.82;5.63;;;25.60;99.90;;;;;;4993580;28;20216;-66
2023/07/05 11:11:17;;;;;;;5.40;5.20;;;25.60;99.90;;;;;;4992565;28;20198;-66
2023/07/05 11:13:44;;;;;;;5.80;5.60;;;25.50;99.90;;;;;;4992884;28;20241;-66
2023/07/05 11:16:17;;;;;;;5.63;5.43;;;25.50;99.90;;;;;;4993123;28;20210;-63
2023/07/05 11:18:45;;;;;;;5.60;5.40;;;25.50;99.90;;;;;;4993066;28;20198;-68
2023/07/05 11:21:37;;;;;;;5.70;5.50;;;25.60;99.90;;;;;;4991679;28;20297;-68
2023/07/05 11:24:05;;;;;;;5.60;5.40;;;25.60;99.90;;;;;;4992636;28;20226;-68
2023/07/05 11:26:40;;;;;;;5.60;5.40;;;25.70;99.90;;;;;;4991071;28;20252;-67
2023/07/05 11:29:49;;;;;;;5.72;5.53;;;25.70;99.90;;;;;;4992637;28;20691;-68
2023/07/05 11:32:16;;;;;;;5.57;5.38;;;25.80;99.90;;;;;;4993461;28;20234;-65
2023/07/05 11:34:49;;;;;;;5.90;5.70;;;26.00;99.90;;;;;;4993804;28;20226;-66
2023/07/05 11:37:49;;;;;;;5.82;5.60;;;25.80;99.90;;;;;;4993486;28;20199;-67
2023/07/05 11:41:05;;;;;;;5.50;5.30;;;25.70;99.90;;;;;;4992789;28;20194;-67
2023/07/05 11:43:40;;;;;;;5.70;5.50;;;25.50;99.90;;;;;;4993707;28;20265;-65
2023/07/05 11:46:37;;;;;;;5.60;5.40;;;25.70;99.90;;;;;;4993585;28;20253;-66
2023/07/05 11:49:27;;;;;;;5.80;5.60;;;25.90;99.90;;;;;;4990992;28;20210;-65
2023/07/05 11:51:58;;;;;;;6.05;5.85;;;26.10;99.90;;;;;;4992654;28;20229;-70
2023/07/05 11:54:31;;;;;;;6.10;5.80;;;26.30;99.90;;;;;;5001819;28;20234;-66
2023/07/05 11:57:02;;;;;;;5.82;5.63;;;26.40;99.90;;;;;;4994396;28;20214;-66
2023/07/05 11:59:35;;;;;;;6.32;6.13;;;26.50;99.90;;;;;;4991980;28;20214;-67
2023/07/05 12:02:11;;;;;;;6.45;6.25;;;26.30;99.90;;;;;;4992488;28;20196;-65
2023/07/05 12:04:40;;;;;;;5.40;5.20;;;26.00;99.90;;;;;;4992994;28;20755;-67
2023/07/05 12:07:10;;;;;;;5.88;5.68;;;25.80;99.90;;;;;;4993122;28;20210;-66
2023/07/05 12:09:43;;;;;;;5.97;5.78;;;25.50;99.90;;;;;;4993160;28;20206;-66
2023/07/05 12:12:12;;;;;;;5.50;5.30;;;25.40;99.90;;;;;;4994858;28;20218;-66
2023/07/05 12:14:42;;;;;;;5.60;5.40;;;25.30;99.90;;;;;;5003775;28;20240;-66
2023/07/05 12:17:13;;;;;;;6.00;5.75;;;25.40;99.90;;;;;;5012188;28;20690;-66
2023/07/05 12:19:40;;;;;;;5.70;5.50;;;25.20;99.90;;;;;;5010886;28;20666;-66
2023/07/05 12:22:11;;;;;;;5.50;5.30;;;25.00;99.90;;;;;;5011444;28;20231;-66
2023/07/05 12:24:42;;;;;;;5.70;5.50;;;25.20;99.90;;;;;;5010893;28;20234;-66
2023/07/05 12:27:21;;;;;;;5.75;5.55;;;25.20;99.90;;;;;;5010963;28;20205;-65
2023/07/05 12:29:52;;;;;;;5.30;5.10;;;25.20;99.90;;;;;;5010720;28;20247;-66
2023/07/05 12:32:21;;;;;;;5.70;5.50;;;25.50;99.90;;;;;;5011296;28;20224;-66
2023/07/05 12:35:01;;;;;;;5.65;5.45;;;25.70;99.90;;;;;;5011200;28;20316;-67
2023/07/05 12:37:32;;;;;;;5.50;5.30;;;26.00;99.90;;;;;;5012343;28;20205;-65
2023/07/05 12:40:22;;;;;;;5.72;5.53;;;26.10;99.90;;;;;;5012381;28;20209;-63
2023/07/05 12:42:50;;;;;;;6.03;5.82;;;26.40;99.90;;;;;;5011857;28;20198;-66
2023/07/05 12:45:23;;;;;;;6.10;5.90;;;26.60;99.90;;;;;;5012830;28;20225;-65
2023/07/05 12:47:50;;;;;;;6.25;6.05;;;26.50;99.90;;;;;;5009961;28;20296;-67
2023/07/05 12:50:22;;;;;;;6.35;6.15;;;26.30;99.90;;;;;;5010992;28;20209;-67
2023/07/05 12:53:03;;;;;;;6.20;6.00;;;26.40;99.90;;;;;;5011816;28;20316;-67